createdAt,value
2018-07-03T00:01:54.036Z,1.73
2018-07-03T00:04:22.975Z,1.60
2018-07-03T00:06:52.687Z,1.70
2018-07-03T00:09:21.927Z,1.27
2018-07-03T00:11:50.879Z,1.83
2018-07-03T00:14:20.014Z,1.80
2018-07-03T00:16:54.643Z,2.07
2018-07-03T00:19:23.904Z,1.47
2018-07-03T00:21:53.452Z,2.60
2018-07-03T00:24:22.354Z,1.77
2018-07-03T00:26:51.965Z,1.40
2018-07-03T00:29:21.368Z,1.40
2018-07-03T00:31:50.604Z,1.40
2018-07-03T00:34:19.835Z,1.60
2018-07-03T00:36:49.288Z,1.40
2018-07-03T00:39:18.527Z,1.67
2018-07-03T00:41:47.810Z,1.53
2018-07-03T00:44:17.035Z,1.30
2018-07-03T00:46:46.265Z,1.60
2018-07-03T00:49:15.996Z,1.60
2018-07-03T00:51:45.224Z,1.80
2018-07-03T00:54:14.510Z,1.93
2018-07-03T00:56:43.792Z,1.40
2018-07-03T00:59:13.277Z,2.00
2018-07-03T01:01:42.489Z,1.73
2018-07-03T01:04:11.804Z,1.30
2018-07-03T01:06:41.020Z,1.20
2018-07-03T01:09:10.588Z,1.47
2018-07-03T01:11:40.627Z,1.47
2018-07-03T01:14:09.876Z,1.37
2018-07-03T01:16:39.116Z,2.13
2018-07-03T01:19:08.392Z,1.30
2018-07-03T01:21:37.644Z,1.63
2018-07-03T01:24:06.881Z,2.00
2018-07-03T01:26:36.235Z,1.57
2018-07-03T01:29:06.328Z,1.57
2018-07-03T01:31:35.544Z,1.67
2018-07-03T01:34:04.919Z,1.50
2018-07-03T01:36:33.799Z,1.60
2018-07-03T01:39:03.032Z,1.30
2018-07-03T01:41:32.284Z,1.83
2018-07-03T01:44:01.516Z,1.67
2018-07-03T01:46:30.707Z,1.50
2018-07-03T01:48:59.952Z,1.70
2018-07-03T01:51:29.155Z,1.50
2018-07-03T01:53:58.392Z,1.80
2018-07-03T01:56:27.378Z,1.73
2018-07-03T01:58:56.476Z,1.50
2018-07-03T02:01:25.820Z,1.40
2018-07-03T02:03:55.140Z,1.77
2018-07-03T02:06:24.360Z,1.67
2018-07-03T02:08:53.576Z,1.60
2018-07-03T02:11:22.548Z,1.93
2018-07-03T02:13:51.647Z,1.67
2018-07-03T02:16:20.873Z,1.60
2018-07-03T02:18:49.955Z,1.60
2018-07-03T02:21:19.031Z,1.67
2018-07-03T02:23:48.256Z,1.50
2018-07-03T02:26:17.168Z,2.43
2018-07-03T02:28:46.268Z,1.90
2018-07-03T02:31:15.751Z,1.47
2018-07-03T02:33:45.029Z,1.50
2018-07-03T02:36:14.244Z,1.40
2018-07-03T02:38:43.483Z,1.60
2018-07-03T02:41:12.902Z,1.60
2018-07-03T02:43:42.273Z,1.20
2018-07-03T02:46:11.503Z,1.60
2018-07-03T02:48:40.827Z,1.50
2018-07-03T02:51:10.580Z,1.73
2018-07-03T02:53:39.844Z,1.47
2018-07-03T02:56:09.119Z,1.77
2018-07-03T02:58:38.388Z,1.50
2018-07-03T03:01:07.684Z,1.40
2018-07-03T03:03:36.988Z,2.07
2018-07-03T03:06:06.322Z,1.40
2018-07-03T03:08:35.585Z,1.57
2018-07-03T03:11:04.517Z,1.77
2018-07-03T03:13:33.637Z,1.70
2018-07-03T03:16:02.876Z,1.93
2018-07-03T03:18:32.112Z,2.13
2018-07-03T03:21:01.397Z,1.77
2018-07-03T03:23:30.624Z,1.80
2018-07-03T03:26:00.068Z,1.53
2018-07-03T03:28:29.292Z,1.60
2018-07-03T03:30:58.507Z,1.57
2018-07-03T03:33:27.769Z,2.00
2018-07-03T03:35:57.027Z,1.80
2018-07-03T03:38:26.271Z,1.80
2018-07-03T03:40:55.540Z,1.70
2018-07-03T03:43:24.810Z,1.50
2018-07-03T03:45:54.007Z,1.33
2018-07-03T03:48:23.309Z,1.40
2018-07-03T03:50:52.528Z,1.47
2018-07-03T03:53:21.788Z,1.80
2018-07-03T03:55:51.040Z,2.10
2018-07-03T03:58:20.276Z,1.67
2018-07-03T04:00:49.557Z,1.63
2018-07-03T04:03:19.114Z,1.80
2018-07-03T04:05:48.426Z,1.63
2018-07-03T04:08:17.683Z,1.70
2018-07-03T04:10:47.128Z,2.33
2018-07-03T04:13:16.633Z,2.83
2018-07-03T04:15:45.863Z,1.80
2018-07-03T04:18:19.600Z,1.40
2018-07-03T04:20:48.844Z,1.60
2018-07-03T04:23:18.131Z,2.00
2018-07-03T04:25:48.780Z,1.70
2018-07-03T04:28:18.215Z,1.77
2018-07-03T04:30:47.476Z,2.20
2018-07-03T04:33:16.748Z,1.53
2018-07-03T04:35:45.969Z,1.30
2018-07-03T04:38:15.232Z,1.70
2018-07-03T04:40:44.532Z,1.27
2018-07-03T04:43:14.075Z,1.50
2018-07-03T04:45:43.277Z,1.60
2018-07-03T04:48:12.632Z,2.00
2018-07-03T04:50:41.888Z,1.50
2018-07-03T04:53:11.145Z,2.10
2018-07-03T04:55:40.417Z,2.23
2018-07-03T04:58:09.319Z,2.00
2018-07-03T05:00:38.605Z,1.70
2018-07-03T05:03:07.924Z,2.00
2018-07-03T05:05:37.196Z,1.87
2018-07-03T05:08:06.470Z,2.07
2018-07-03T05:10:36.265Z,2.90
2018-07-03T05:13:05.692Z,1.67
2018-07-03T05:15:34.917Z,2.40
2018-07-03T05:18:04.275Z,1.90
2018-07-03T05:20:33.632Z,2.20
2018-07-03T05:23:02.867Z,1.73
2018-07-03T05:25:32.116Z,1.80
2018-07-03T05:28:01.340Z,1.87
2018-07-03T05:30:30.812Z,1.97
2018-07-03T05:33:00.386Z,2.17
2018-07-03T05:35:30.947Z,1.90
2018-07-03T05:38:00.252Z,2.20
2018-07-03T05:40:29.721Z,1.93
2018-07-03T05:42:58.993Z,2.17
2018-07-03T05:45:28.222Z,1.40
2018-07-03T05:47:57.721Z,1.70
2018-07-03T05:50:26.976Z,2.20
2018-07-03T05:52:56.212Z,1.50
2018-07-03T05:55:25.832Z,2.77
2018-07-03T05:57:55.096Z,1.50
2018-07-03T06:00:24.391Z,2.20
2018-07-03T06:02:53.307Z,2.00
2018-07-03T06:05:22.412Z,1.70
2018-07-03T06:07:51.664Z,2.10
2018-07-03T06:10:20.571Z,2.00
2018-07-03T06:12:49.673Z,1.50
2018-07-03T06:15:18.992Z,1.50
2018-07-03T06:17:48.286Z,1.93
2018-07-03T06:20:17.701Z,2.33
2018-07-03T06:22:46.973Z,1.80
2018-07-03T06:25:16.260Z,1.90
2018-07-03T06:27:45.535Z,1.77
2018-07-03T06:30:14.778Z,1.60
2018-07-03T06:32:44.016Z,1.60
2018-07-03T06:35:13.421Z,1.30
2018-07-03T06:37:42.817Z,2.33
2018-07-03T06:40:12.304Z,2.30
2018-07-03T06:42:41.683Z,2.00
2018-07-03T06:45:10.905Z,1.50
2018-07-03T06:47:40.148Z,1.70
2018-07-03T06:50:09.424Z,2.23
2018-07-03T06:52:39.575Z,1.87
2018-07-03T06:55:09.140Z,1.50
2018-07-03T06:57:38.761Z,1.70
2018-07-03T07:00:08.279Z,1.43
2018-07-03T07:02:37.983Z,1.70
2018-07-03T07:05:07.237Z,2.00
2018-07-03T07:07:36.475Z,1.70
2018-07-03T07:10:06.732Z,1.33
2018-07-03T07:12:35.961Z,1.43
2018-07-03T07:15:06.181Z,1.80
2018-07-03T07:17:35.621Z,2.27
2018-07-03T07:20:06.129Z,1.43
2018-07-03T07:22:35.401Z,1.80
2018-07-03T07:25:05.263Z,1.40
2018-07-03T07:27:34.489Z,1.87
2018-07-03T07:30:04.889Z,1.23
2018-07-03T07:32:34.160Z,1.50
2018-07-03T07:35:03.761Z,2.00
2018-07-03T07:37:33.406Z,1.40
2018-07-03T07:40:02.708Z,1.73
2018-07-03T07:42:31.951Z,1.60
2018-07-03T07:45:01.520Z,1.47
2018-07-03T07:47:31.531Z,2.83
2018-07-03T07:50:00.832Z,1.70
2018-07-03T07:52:30.137Z,1.80
2018-07-03T07:54:59.497Z,1.40
2018-07-03T07:57:28.756Z,1.43
2018-07-03T07:59:58.232Z,1.37
2018-07-03T08:02:27.488Z,1.40
2018-07-03T08:04:56.379Z,1.57
2018-07-03T08:07:26.697Z,1.87
2018-07-03T08:09:59.328Z,1.50
2018-07-03T08:12:31.417Z,1.60
2018-07-03T08:15:01.098Z,2.07
2018-07-03T08:17:31.715Z,1.07
2018-07-03T08:20:05.133Z,1.60
2018-07-03T08:22:35.817Z,1.60
2018-07-03T08:25:06.249Z,1.50
2018-07-03T08:27:36.192Z,1.63
2018-07-03T08:30:07.329Z,1.87
2018-07-03T08:32:37.023Z,1.50
2018-07-03T08:35:06.901Z,1.33
2018-07-03T08:37:38.648Z,1.83
2018-07-03T08:40:08.641Z,1.80
2018-07-03T08:42:39.811Z,1.90
2018-07-03T08:45:10.019Z,1.40
2018-07-03T08:47:39.236Z,1.73
2018-07-03T08:50:08.561Z,1.90
2018-07-03T08:52:38.051Z,1.50
2018-07-03T08:55:07.391Z,1.70
2018-07-03T08:57:36.588Z,1.40
2018-07-03T09:00:06.977Z,1.47
2018-07-03T09:02:36.259Z,1.50
2018-07-03T09:05:05.750Z,1.90
2018-07-03T09:07:35.006Z,1.50
2018-07-03T09:10:04.528Z,1.40
2018-07-03T09:12:33.843Z,1.50
2018-07-03T09:15:03.100Z,1.43
2018-07-03T09:17:32.438Z,1.47
2018-07-03T09:20:02.192Z,1.37
2018-07-03T09:22:32.057Z,1.93
2018-07-03T09:25:01.565Z,1.37
2018-07-03T09:27:31.396Z,1.50
2018-07-03T09:30:00.640Z,1.33
2018-07-03T09:32:29.975Z,1.40
2018-07-03T09:34:59.989Z,1.40
2018-07-03T09:37:29.280Z,1.50
2018-07-03T09:39:58.492Z,1.20
2018-07-03T09:42:27.699Z,1.40
2018-07-03T09:44:56.896Z,1.40
2018-07-03T09:47:26.128Z,1.50
2018-07-03T09:49:57.376Z,1.37
2018-07-03T09:52:26.680Z,1.30
2018-07-03T09:54:55.972Z,2.17
2018-07-03T09:57:27.926Z,1.47
2018-07-03T09:59:57.616Z,2.13
2018-07-03T10:02:26.900Z,1.40
2018-07-03T10:04:56.104Z,1.30
2018-07-03T10:07:25.352Z,1.73
2018-07-03T10:09:54.761Z,1.60
2018-07-03T10:12:24.010Z,1.70
2018-07-03T10:14:53.694Z,1.73
2018-07-03T10:17:22.933Z,1.00
2018-07-03T10:19:52.160Z,1.00
2018-07-03T10:22:21.433Z,1.70
2018-07-03T10:24:50.732Z,1.50
2018-07-03T10:27:20.000Z,1.20
2018-07-03T10:29:49.368Z,1.67
2018-07-03T10:32:19.048Z,1.10
2018-07-03T10:34:48.444Z,1.47
2018-07-03T10:37:17.710Z,1.40
2018-07-03T10:39:47.012Z,1.40
2018-07-03T10:42:16.261Z,1.53
2018-07-03T10:44:45.508Z,1.50
2018-07-03T10:47:14.766Z,1.73
2018-07-03T10:49:43.992Z,1.50
2018-07-03T10:52:13.220Z,1.30
2018-07-03T10:54:42.777Z,1.37
2018-07-03T10:57:12.040Z,1.17
2018-07-03T10:59:42.917Z,1.17
2018-07-03T11:02:12.320Z,2.10
2018-07-03T11:04:41.612Z,1.53
2018-07-03T11:07:10.984Z,1.40
2018-07-03T11:09:40.399Z,1.50
2018-07-03T11:12:09.619Z,1.73
2018-07-03T11:14:39.128Z,1.10
2018-07-03T11:17:08.427Z,1.40
2018-07-03T11:19:37.640Z,1.43
2018-07-03T11:22:07.637Z,1.53
2018-07-03T11:24:36.900Z,1.37
2018-07-03T11:27:06.329Z,1.90
2018-07-03T11:29:35.728Z,1.50
2018-07-03T11:32:05.004Z,1.13
2018-07-03T11:34:34.228Z,1.00
2018-07-03T11:37:03.864Z,1.30
2018-07-03T11:39:33.095Z,1.23
2018-07-03T11:42:02.659Z,1.10
2018-07-03T11:44:31.940Z,1.20
2018-07-03T11:47:01.183Z,1.30
2018-07-03T11:49:30.412Z,1.20
2018-07-03T11:51:59.669Z,1.33
2018-07-03T11:54:28.901Z,1.30
2018-07-03T11:56:58.811Z,1.00
2018-07-03T11:59:28.566Z,1.03
2018-07-03T12:01:57.957Z,1.23
2018-07-03T12:04:27.229Z,1.40
2018-07-03T12:06:57.331Z,0.80
2018-07-03T12:09:26.580Z,1.00
2018-07-03T12:11:55.852Z,1.20
2018-07-03T12:14:25.338Z,1.20
2018-07-03T12:16:54.578Z,0.90
2018-07-03T12:19:23.855Z,1.07
2018-07-03T12:21:53.120Z,1.10
2018-07-03T12:24:22.212Z,0.90
2018-07-03T12:26:51.576Z,1.33
2018-07-03T12:29:20.905Z,1.30
2018-07-03T12:31:50.254Z,0.90
2018-07-03T12:34:19.711Z,1.53
2018-07-03T12:36:49.631Z,1.17
2018-07-03T12:39:19.040Z,1.20
2018-07-03T12:41:48.253Z,1.00
2018-07-03T12:44:18.085Z,1.17
2018-07-03T12:46:47.352Z,1.00
2018-07-03T12:49:17.203Z,1.00
2018-07-03T12:51:46.453Z,0.80
2018-07-03T12:54:15.741Z,0.90
2018-07-03T12:56:45.052Z,0.90
2018-07-03T12:59:14.660Z,0.90
2018-07-03T13:01:43.975Z,1.10
2018-07-03T13:04:13.198Z,1.10
2018-07-03T13:06:42.764Z,0.90
2018-07-03T13:09:12.699Z,0.90
2018-07-03T13:11:42.092Z,1.17
2018-07-03T13:14:11.377Z,1.30
2018-07-03T13:16:40.803Z,1.07
2018-07-03T13:19:10.252Z,0.90
2018-07-03T13:21:39.537Z,1.07
2018-07-03T13:24:08.787Z,1.00
2018-07-03T13:26:38.016Z,0.87
2018-07-03T13:29:07.724Z,1.03
2018-07-03T13:31:37.184Z,0.80
2018-07-03T13:34:06.420Z,0.90
2018-07-03T13:36:35.668Z,0.93
2018-07-03T13:39:07.669Z,0.80
2018-07-03T13:41:36.966Z,1.10
2018-07-03T13:44:07.802Z,1.40
2018-07-03T13:46:37.440Z,0.80
2018-07-03T13:49:07.054Z,1.10
2018-07-03T13:51:36.268Z,0.77
2018-07-03T13:54:05.164Z,0.70
2018-07-03T13:56:34.288Z,0.97
2018-07-03T13:59:03.668Z,0.90
2018-07-03T14:01:32.905Z,0.80
2018-07-03T14:04:02.525Z,0.70
2018-07-03T14:06:31.873Z,1.13
2018-07-03T14:09:01.108Z,0.77
2018-07-03T14:11:30.716Z,1.20
2018-07-03T14:14:00.667Z,1.17
2018-07-03T14:16:29.864Z,1.60
2018-07-03T14:18:59.147Z,0.83
2018-07-03T14:21:28.412Z,1.03
2018-07-03T14:23:57.652Z,1.00
2018-07-03T14:26:26.912Z,0.90
2018-07-03T14:28:56.240Z,0.90
2018-07-03T14:31:25.484Z,1.30
2018-07-03T14:33:55.044Z,1.50
2018-07-03T14:36:24.303Z,1.10
2018-07-03T14:38:53.556Z,0.70
2018-07-03T14:41:23.017Z,1.10
2018-07-03T14:43:52.296Z,0.93
2018-07-03T14:46:21.664Z,0.73
2018-07-03T14:48:51.355Z,1.07
2018-07-03T14:51:20.573Z,0.83
2018-07-03T14:53:49.799Z,0.90
2018-07-03T14:56:19.452Z,0.60
2018-07-03T14:58:48.780Z,0.70
2018-07-03T15:01:18.040Z,0.83
2018-07-03T15:03:47.304Z,1.00
2018-07-03T15:06:16.660Z,0.70
2018-07-03T15:08:45.904Z,0.60
2018-07-03T15:11:15.268Z,0.70
2018-07-03T15:13:44.512Z,0.77
2018-07-03T15:16:13.763Z,0.90
2018-07-03T15:18:48.640Z,0.70
2018-07-03T15:21:20.121Z,1.47
2018-07-03T15:23:49.398Z,0.77
2018-07-03T15:26:18.780Z,0.90
2018-07-03T15:28:48.044Z,0.80
2018-07-03T15:31:17.320Z,1.10
2018-07-03T15:33:46.969Z,0.90
2018-07-03T15:36:16.164Z,0.77
2018-07-03T15:38:45.757Z,1.20
2018-07-03T15:41:15.032Z,1.13
2018-07-03T15:43:49.493Z,1.00
2018-07-03T15:46:18.600Z,0.80
2018-07-03T15:48:47.860Z,0.70
2018-07-03T15:51:17.619Z,0.90
2018-07-03T15:53:46.848Z,0.70
2018-07-03T15:56:16.140Z,0.80
2018-07-03T15:58:45.900Z,0.80
2018-07-03T16:01:15.283Z,1.37
2018-07-03T16:05:20.464Z,0.60
2018-07-03T16:07:59.090Z,1.00
2018-07-03T16:10:28.377Z,0.80
2018-07-03T16:12:57.858Z,0.70
2018-07-03T16:15:27.269Z,0.70
2018-07-03T16:17:56.713Z,0.70
2018-07-03T16:20:31.052Z,0.93
2018-07-03T16:23:00.295Z,1.03
2018-07-03T16:25:31.944Z,1.30
2018-07-03T16:28:02.391Z,1.00
2018-07-03T16:30:31.697Z,1.00
2018-07-03T16:33:00.892Z,0.80
2018-07-03T16:35:30.259Z,0.90
2018-07-03T16:37:59.632Z,0.90
2018-07-03T16:40:28.866Z,0.80
2018-07-03T16:42:58.112Z,1.20
2018-07-03T16:45:27.530Z,0.90
2018-07-03T16:47:57.097Z,0.93
2018-07-03T16:50:26.355Z,1.23
2018-07-03T16:52:55.896Z,0.90
2018-07-03T16:55:25.115Z,0.93
2018-07-03T16:57:54.431Z,0.90
2018-07-03T17:00:26.824Z,1.10
2018-07-03T17:02:56.483Z,1.40
2018-07-03T17:05:25.705Z,1.23
2018-07-03T17:07:55.048Z,1.73
2018-07-03T17:10:23.972Z,0.80
2018-07-03T17:12:53.092Z,1.00
2018-07-03T17:15:22.451Z,1.10
2018-07-03T17:17:51.790Z,2.23
2018-07-03T17:20:21.032Z,1.03
2018-07-03T17:22:50.272Z,0.90
2018-07-03T17:25:19.708Z,1.00
2018-07-03T17:27:48.961Z,1.70
2018-07-03T17:30:18.580Z,1.00
2018-07-03T17:32:47.836Z,1.10
2018-07-03T17:35:18.092Z,1.00
2018-07-03T17:37:47.376Z,1.20
2018-07-03T17:40:27.840Z,1.20
2018-07-03T17:43:20.224Z,1.07
2018-07-03T17:46:08.461Z,1.03
2018-07-03T17:48:37.728Z,1.07
2018-07-03T17:51:07.083Z,0.90
2018-07-03T17:53:37.908Z,1.10
2018-07-03T17:56:07.124Z,0.90
2018-07-03T17:58:36.364Z,0.90
2018-07-03T18:01:05.549Z,1.00
2018-07-03T18:03:34.515Z,1.37
2018-07-03T18:06:03.784Z,1.00
2018-07-03T18:08:33.112Z,0.83
2018-07-03T18:11:02.360Z,1.20
2018-07-03T18:13:31.584Z,1.53
2018-07-03T18:16:02.185Z,1.17
2018-07-03T18:18:31.404Z,1.00
2018-07-03T18:21:00.979Z,1.30
2018-07-03T18:23:30.537Z,1.13
2018-07-03T18:25:59.636Z,1.20
2018-07-03T18:28:29.261Z,1.97
2018-07-03T18:30:58.687Z,1.27
2018-07-03T18:33:27.908Z,1.00
2018-07-03T18:35:57.128Z,1.23
2018-07-03T18:38:26.392Z,1.20
2018-07-03T18:40:55.403Z,1.40
2018-07-03T18:43:24.527Z,1.27
2018-07-03T18:45:54.040Z,1.20
2018-07-03T18:48:23.416Z,1.00
2018-07-03T18:50:52.637Z,1.40
2018-07-03T18:53:22.376Z,1.80
2018-07-03T18:55:51.630Z,1.37
2018-07-03T18:58:20.896Z,1.53
2018-07-03T19:00:50.185Z,1.50
2018-07-03T19:03:19.457Z,1.03
2018-07-03T19:05:48.684Z,1.10
2018-07-03T19:08:18.158Z,1.30
2018-07-03T19:10:47.396Z,1.20
2018-07-03T19:13:16.652Z,1.53
2018-07-03T19:15:45.932Z,1.33
2018-07-03T19:18:15.164Z,1.10
2018-07-03T19:20:44.658Z,1.60
2018-07-03T19:23:13.928Z,1.20
2018-07-03T19:25:43.220Z,1.00
2018-07-03T19:28:12.456Z,1.40
2018-07-03T19:30:41.892Z,1.63
2018-07-03T19:33:11.133Z,1.20
2018-07-03T19:35:40.397Z,1.33
2018-07-03T19:38:09.837Z,1.23
2018-07-03T19:40:39.072Z,1.33
2018-07-03T19:43:26.999Z,1.60
2018-07-03T19:45:56.975Z,1.60
2018-07-03T19:48:26.222Z,1.57
2018-07-03T19:50:56.243Z,1.20
2018-07-03T19:53:25.838Z,1.43
2018-07-03T19:55:56.401Z,1.23
2018-07-03T19:58:25.870Z,1.83
2018-07-03T20:00:56.114Z,1.83
2018-07-03T20:03:25.360Z,1.87
2018-07-03T20:05:54.622Z,2.10
2018-07-03T20:08:23.893Z,2.23
2018-07-03T20:10:53.203Z,2.33
2018-07-03T20:13:22.964Z,2.00
2018-07-03T20:15:52.539Z,2.30
2018-07-03T20:18:21.776Z,2.20
2018-07-03T20:20:50.809Z,2.53
2018-07-03T20:23:19.921Z,1.90
2018-07-03T20:25:49.172Z,2.40
2018-07-03T20:28:18.422Z,2.60
2018-07-03T20:30:47.672Z,2.80
2018-07-03T20:33:16.898Z,2.10
2018-07-03T20:35:46.188Z,2.10
2018-07-03T20:38:15.397Z,2.40
2018-07-03T20:40:53.421Z,3.13
2018-07-03T20:43:23.128Z,2.67
2018-07-03T20:45:52.400Z,2.50
2018-07-03T20:48:22.800Z,2.73
2018-07-03T20:50:52.021Z,2.43
2018-07-03T20:53:21.525Z,3.10
2018-07-03T20:55:51.121Z,2.60
2018-07-03T20:58:20.135Z,2.20
2018-07-03T21:00:49.212Z,2.40
2018-07-03T21:03:18.465Z,2.37
2018-07-03T21:05:47.763Z,2.07
2018-07-03T21:08:16.938Z,2.50
2018-07-03T21:10:46.336Z,2.13
2018-07-03T21:13:15.584Z,1.67
2018-07-03T21:15:44.504Z,2.33
2018-07-03T21:18:14.190Z,2.20
2018-07-03T21:20:43.436Z,1.70
2018-07-03T21:23:12.692Z,2.40
2018-07-03T21:25:42.252Z,3.40
2018-07-03T21:28:11.836Z,2.53
2018-07-03T21:30:41.343Z,3.10
2018-07-03T21:33:10.600Z,3.53
2018-07-03T21:35:39.841Z,2.90
2018-07-03T21:38:09.952Z,3.87
2018-07-03T21:40:40.594Z,4.20
2018-07-03T21:43:12.448Z,4.20
2018-07-03T21:45:41.757Z,3.33
2018-07-03T21:48:10.997Z,3.83
2018-07-03T21:50:40.377Z,3.77
2018-07-03T21:53:09.652Z,3.17
2018-07-03T21:55:38.893Z,3.80
2018-07-03T21:58:08.741Z,2.27
2018-07-03T22:00:40.753Z,2.70
2018-07-03T22:03:11.162Z,2.10
2018-07-03T22:05:41.000Z,2.93
2018-07-03T22:08:10.369Z,2.00
2018-07-03T22:10:39.609Z,2.23
2018-07-03T22:13:08.897Z,2.40
2018-07-03T22:15:38.117Z,2.27
2018-07-03T22:18:07.356Z,3.00
2018-07-03T22:20:36.945Z,2.23
2018-07-03T22:23:05.857Z,2.30
2018-07-03T22:25:34.962Z,1.97
2018-07-03T22:28:04.224Z,2.17
2018-07-03T22:30:33.449Z,2.07
2018-07-03T22:33:02.678Z,2.10
2018-07-03T22:35:31.917Z,2.23
2018-07-03T22:38:01.170Z,2.33
2018-07-03T22:40:30.397Z,2.10
2018-07-03T22:42:59.824Z,2.30
2018-07-03T22:45:29.069Z,1.93
2018-07-03T22:47:58.292Z,2.10
2018-07-03T22:50:27.688Z,2.40
2018-07-03T22:52:56.930Z,2.10
2018-07-03T22:55:26.140Z,2.20
2018-07-03T22:57:55.408Z,2.20
2018-07-03T23:00:25.271Z,2.10
2018-07-03T23:02:54.537Z,1.90
2018-07-03T23:05:24.024Z,1.67
2018-07-03T23:07:53.705Z,1.80
2018-07-03T23:10:22.864Z,2.00
2018-07-03T23:12:51.790Z,1.70
2018-07-03T23:15:20.933Z,2.03
2018-07-03T23:17:50.165Z,2.00
2018-07-03T23:20:19.103Z,1.70
2018-07-03T23:22:48.204Z,2.20
2018-07-03T23:25:17.437Z,1.73
2018-07-03T23:27:46.913Z,1.60
2018-07-03T23:30:16.169Z,1.50
2018-07-03T23:32:45.387Z,2.20
2018-07-03T23:35:14.717Z,1.87
2018-07-03T23:37:43.874Z,2.20
2018-07-03T23:40:13.091Z,1.93
2018-07-03T23:51:27.812Z,2.17
2018-07-03T23:54:08.261Z,2.20
2018-07-03T23:56:48.778Z,2.30
2018-07-03T23:59:29.182Z,2.07
